AirNav   Duncan Aviation - Near you to keep you flying
 
 709 users online  

VA16 Centreville Airport
Centreville, Virginia, USA

GOING TO CENTREVILLE?


FAA INFORMATION EFFECTIVE 14 JULY 2022

Location

FAA Identifier: VA16
Lat/Long: 38-52-45.4040N 077-29-03.9620W
38-52.756733N 077-29.066033W
38.8792789,-77.4844339
(estimated)
Elevation: 300 ft. / 91 m (estimated)
Variation: 09W (1985)
From city: 3 miles W of CENTREVILLE, VA
Time zone: UTC -4 (UTC -5 during Standard Time)
Zip code: 20120

Airport Operations

Airport use: Private use. Permission required prior to landing
Control tower: no
ARTCC: WASHINGTON CENTER
FSS: LEESBURG FLIGHT SERVICE STATION
Attendance: UNATNDD
Segmented circle: no

Airport Communications

WX ASOS at IAD (4 nm N): PHONE 703-661-2990
WX AWOS-3PT at HEF (10 nm S): PHONE 703-361-6160
WX AWOS-3 at JYO (12 nm N): 125.225 (703-777-3781)

Nearby radio navigation aids

VOR radial/distance  VOR name  Freq  Var
AMLr202/3.4ARMEL VOR/DME113.5008W
DCAr282/21.0WASHINGTON VOR/DME111.0009W
CSNr057/22.8CASANOVA VORTAC116.3006W
ADWr289/29.2ANDREWS VORTAC113.1010W
FDKr197/(32.4)FREDERICK VOR109.0008W
BRVr358/33.2BROOKE VORTAC114.5009W
LDNr093/33.7LINDEN VORTAC114.3006W
MRBr158/34.8MARTINSBURG VORTAC112.1007W
OTTr297/36.1NOTTINGHAM VORTAC113.7010W

 
NDB name  Hdg/Dist  Freq  Var  ID
GEORGETOWN269/17.132309WGTN --. - -.
DAVEE316/21.822309WDAA -.. .- .-
OXONN299/22.433211WDCA -.. -.-. .-
NAILR048/32.235110WMSQ -- ... --.-
SHANNON008/36.823710WEZF . --.. ..-.

Airport Services

Airframe service: NONE
Powerplant service: NONE

Runway Information

Runway 6/24

Dimensions: 2100 x 100 ft. / 640 x 30 m
Surface: turf
RUNWAY 6  RUNWAY 24
Traffic pattern: leftleft
Obstructions: pline, markednone

Runway 15/33

Dimensions: 1100 x 100 ft. / 335 x 30 m
Surface: turf
RUNWAY 15  RUNWAY 33
Traffic pattern: rightright
Obstructions: nonepline

Airport Ownership and Management from official FAA records

Ownership: Privately-owned
Owner: DAVID L. HUNTER
2911 HUNTER MILL RD
OAKTON, VA 22124
Phone 703-281-7760

Additional Remarks

FOR CD CTC POTOMAC APCH AT 866-709-4993.

Instrument Procedures

There are no published instrument procedures at VA16.

Some nearby airports with instrument procedures:

KIAD - Washington Dulles International Airport (4 nm N)
KHEF - Manassas Regional Airport/Harry P. Davis Field (10 nm S)
KJYO - Leesburg Executive Airport (12 nm N)
KDAA - Davison Army Airfield (17 nm SE)
2VG2 - Upperville Airport (19 nm W)
 
Loc | Ops | Rwys | IFR | FBO | Links
Com | Nav | Svcs | Stats | Notes
Area around VA16 (Centreville Airport)
 
Road maps at: MapQuest Bing Google
 
Aerial photo
WARNING: Photo may not be current or correct
Aerial photo of VA16 (Centreville Airport)
As seen circa 2003

Do you have a better or more recent aerial photo of Centreville Airport that you would like to share? If so, please send us your photo.

 
Sectional chart

 
Airport distance calculator
Flying to Centreville Airport? Find the distance to fly.

From to VA16

Sunrise and sunset
Times for 11-Aug-2022
 Local
(UTC-4)
 Zulu
(UTC)
Morning civil twilight05:5209:52
Sunrise06:2110:21
Sunset20:0900:09
Evening civil twilight20:3800:38

Current date and time
Zulu (UTC)  11-Aug-2022 05:03:29
Local (UTC-4)  11-Aug-2022 01:03:29
 
METAR
KIAD 
4nm NE 
110452Z 21006KT 10SM FEW080 FEW120 22/21 A3001 RMK AO2 RAE43 SLP159 P0002 T02220211 403390222
KHEF 
10nm S 
110456Z AUTO 00000KT 10SM -RA FEW006 22/22 A3000 RMK AO2 RAB22 SLP164 T02220217 PNO $
KJYO 
12nm N 
110455Z AUTO 00000KT 10SM SCT006 BKN039 OVC046 22/22 A3003 RMK AO2 LTG DSNT NE
KDAA 
18nm SE 
110456Z AUTO 00000KT 10SM OVC007 23/22 A2999 RMK AO2 SLP158 T02250218 403430220 $
TAF
KIAD 
4nm NE 
110137Z 1102/1206 24004KT P6SM -SHRA BKN035 OVC080 FM110400 24003KT P6SM SCT025 OVC100 FM111600 33005KT P6SM SCT060
KDAA 
18nm SE 
102000Z 1020/1202 VRB06KT 9000 -SHRA VCTS SCT035CB BKN050 BKN110 QNH2996INS TEMPO 1020/1101 27025G35KT 1600 +TSRA BKN030CB OVC065 BECMG 1100/1101 29009KT 8000 -SHRA VCTS SCT025CB BKN040 BKN080 QNH2998INS BECMG 1105/1106 VRB06KT 8000 -SHRA FEW025 BKN040 OVC080 QNH2996INS BECMG 1111/1112 VRB06KT 9999 NSW FEW030 BKN045 OVC065 QNH2995INS BECMG 1117/1118 VRB06KT 9999 SKC QNH2988INS TX31/1021Z TN21/1108Z LAST NO AMDS AFT 1101 NEXT 1112
NOTAMs
Click for the latest NOTAMs
NOTAMs are issued by the DoD/FAA and will open in a separate window not controlled by AirNav.

 

 
 

Would you like to see your business listed on this page?

 If your business provides an interesting product or service to pilots, flight crews, aircraft, or users of the Centreville Airport, you should consider listing it here.  To start the listing process, click on the button below
 
Add a business
 

Other Pages about Centreville Airport

Update a link
 
Copyright © AirNav, LLC. All rights reserved. Privacy Policy  Contact